Time;durP1;ratioP1;P1;durP2;ratioP2;P2;SDS_P1;SDS_P2;PMS_P1;PMS_P2;Temp;Humidity;BMP_temperature;BMP_pressure;BME280_temperature;BME280_humidity;BME280_pressure;Samples;Min_cycle;Max_cycle;Signal;HPM_P1;HPM_P2
2022/01/16 00:01:06;;;;;;;;;;;8.90;60.00;;;;;;5000505;28;19917;-87
2022/01/16 00:06:21;;;;;;;;;;;8.90;59.70;;;;;;5017836;28;19917;-87
2022/01/16 00:08:46;;;;;;;;;;;8.80;60.00;;;;;;5022408;28;19918;-87
2022/01/16 00:11:12;;;;;;;;;;;8.80;59.90;;;;;;5036321;28;19909;-87
2022/01/16 00:13:38;;;;;;;;;;;8.70;59.60;;;;;;5035643;28;19917;-88
2022/01/16 00:16:03;;;;;;;;;;;8.70;59.80;;;;;;5001364;28;19913;-89
2022/01/16 00:18:40;;;;;;;;;;;8.70;59.80;;;;;;5017604;28;20008;-87
2022/01/16 00:21:06;;;;;;;;;;;8.70;59.90;;;;;;5035436;28;19945;-87
2022/01/16 00:23:31;;;;;;;;;;;8.60;59.80;;;;;;5017964;28;20462;-87
2022/01/16 00:25:57;;;;;;;;;;;8.60;59.90;;;;;;5017518;28;20352;-87
2022/01/16 00:28:23;;;;;;;;;;;8.60;59.90;;;;;;5000179;28;19917;-87
2022/01/16 00:30:50;;;;;;;;;;;8.50;60.00;;;;;;5015793;28;20405;-87
2022/01/16 00:33:15;;;;;;;;;;;8.50;60.00;;;;;;5016053;28;19921;-87
2022/01/16 00:35:41;;;;;;;;;;;8.50;60.00;;;;;;5015457;28;20269;-87
2022/01/16 00:38:06;;;;;;;;;;;8.40;60.00;;;;;;4997685;28;20065;-87
2022/01/16 00:40:32;;;;;;;;;;;8.40;60.10;;;;;;5015561;28;20349;-88
2022/01/16 00:42:58;;;;;;;;;;;8.40;60.20;;;;;;5015512;28;20324;-89
2022/01/16 00:45:24;;;;;;;;;;;8.30;60.20;;;;;;4997664;28;20017;-88
2022/01/16 00:47:49;;;;;;;;;;;8.40;60.20;;;;;;4997929;28;20258;-87
2022/01/16 00:50:14;;;;;;;;;;;8.30;60.20;;;;;;4997347;28;19914;-87
2022/01/16 00:52:40;;;;;;;;;;;8.30;60.20;;;;;;5014955;28;19913;-87
2022/01/16 00:55:06;;;;;;;;;;;8.30;60.20;;;;;;4997707;28;20361;-88
2022/01/16 00:57:31;;;;;;;;;;;8.30;60.30;;;;;;5014749;28;20250;-88
2022/01/16 00:59:57;;;;;;;;;;;8.20;60.30;;;;;;5014777;28;19936;-88
2022/01/16 01:02:23;;;;;;;;;;;8.20;60.40;;;;;;4997879;28;19917;-88
2022/01/16 01:04:49;;;;;;;;;;;8.20;60.40;;;;;;4997764;28;19919;-88
2022/01/16 01:07:14;;;;;;;;;;;8.20;60.40;;;;;;5015130;28;20008;-87
2022/01/16 01:09:40;;;;;;;;;;;8.20;60.50;;;;;;5015423;28;20325;-88
2022/01/16 01:12:06;;;;;;;;;;;8.30;60.60;;;;;;4997555;28;19913;-87
2022/01/16 01:14:52;;;;;;;;;;;8.20;60.50;;;;;;5015517;28;19928;-87
2022/01/16 01:17:23;;;;;;;;;;;8.20;60.40;;;;;;5007582;28;19920;-88
2022/01/16 01:19:49;;;;;;;;;;;8.20;60.50;;;;;;5034564;28;19924;-88
2022/01/16 01:22:15;;;;;;;;;;;8.20;60.50;;;;;;5034372;28;19917;-88
2022/01/16 01:24:41;;;;;;;;;;;8.20;60.50;;;;;;5016888;28;19914;-88
2022/01/16 01:27:17;;;;;;;;;;;8.30;60.50;;;;;;5034705;28;19936;-88
2022/01/16 01:29:49;;;;;;;;;;;8.30;60.50;;;;;;5017001;28;20361;-87
2022/01/16 01:32:15;;;;;;;;;;;8.30;60.50;;;;;;5035052;28;20011;-87
2022/01/16 01:34:41;;;;;;;;;;;8.30;60.40;;;;;;5016639;28;19987;-89
2022/01/16 01:37:06;;;;;;;;;;;8.40;60.50;;;;;;5015903;28;20411;-87
2022/01/16 01:39:33;;;;;;;;;;;8.40;60.50;;;;;;5017413;28;19921;-87
2022/01/16 01:42:07;;;;;;;;;;;8.40;60.50;;;;;;5035283;28;20392;-87
2022/01/16 01:52:46;;;;;;;;;;;8.40;60.30;;;;;;5034938;28;19956;-87
2022/01/16 01:55:12;;;;;;;;;;;8.50;60.30;;;;;;5016833;28;19921;-88
2022/01/16 01:57:38;;;;;;;;;;;8.40;60.10;;;;;;5016815;28;19916;-88
2022/01/16 02:00:04;;;;;;;;;;;8.40;60.00;;;;;;5016843;28;19918;-87
2022/01/16 02:02:37;;;;;;;;;;;8.40;60.00;;;;;;5016169;28;19999;-88
2022/01/16 02:05:03;;;;;;;;;;;8.40;60.10;;;;;;5013933;28;19929;-88
2022/01/16 02:07:28;;;;;;;;;;;8.40;60.20;;;;;;5013787;28;19916;-87
2022/01/16 02:09:54;;;;;;;;;;;8.40;60.20;;;;;;5014272;28;19924;-87
2022/01/16 02:12:19;;;;;;;;;;;8.50;60.20;;;;;;5016204;28;19910;-87
2022/01/16 02:14:58;;;;;;;;;;;8.50;60.30;;;;;;5015216;28;19972;-87
2022/01/16 02:28:39;;;;;;;;;;;8.60;60.30;;;;;;5033916;28;19917;-88
2022/01/16 02:31:21;;;;;;;;;;;8.60;60.30;;;;;;5035103;28;19921;-88
2022/01/16 02:36:32;;;;;;;;;;;8.60;60.20;;;;;;5033688;28;20349;-88
2022/01/16 02:39:12;;;;;;;;;;;8.70;60.30;;;;;;5033074;28;20296;-89
2022/01/16 02:41:37;;;;;;;;;;;8.60;60.20;;;;;;5015605;28;20055;-88
2022/01/16 02:44:13;;;;;;;;;;;8.70;60.00;;;;;;5033179;28;19971;-88
2022/01/16 02:46:39;;;;;;;;;;;8.60;60.00;;;;;;5033519;28;19982;-88
2022/01/16 02:49:15;;;;;;;;;;;8.70;60.00;;;;;;5015832;28;19921;-88
2022/01/16 02:51:40;;;;;;;;;;;8.70;60.00;;;;;;5015439;28;19936;-88
2022/01/16 02:54:06;;;;;;;;;;;8.70;59.90;;;;;;5015422;28;20428;-88
2022/01/16 02:56:35;;;;;;;;;;;8.70;59.70;;;;;;5033092;28;20304;-88
2022/01/16 02:59:00;;;;;;;;;;;8.60;59.50;;;;;;5015270;28;19917;-88
2022/01/16 03:01:26;;;;;;;;;;;8.60;59.50;;;;;;5033820;28;19914;-88
2022/01/16 03:03:51;;;;;;;;;;;8.50;59.40;;;;;;5012150;28;19996;-88
2022/01/16 03:06:17;;;;;;;;;;;8.50;59.30;;;;;;5012016;28;19913;-88
2022/01/16 03:08:42;;;;;;;;;;;8.50;59.40;;;;;;5013491;28;20000;-88
2022/01/16 03:13:40;;;;;;;;;;;8.40;59.50;;;;;;5013514;28;19913;-88
2022/01/16 03:16:06;;;;;;;;;;;8.40;59.50;;;;;;5011766;28;19921;-88
2022/01/16 03:21:53;;;;;;;;;;;8.50;59.50;;;;;;5036051;28;20015;-87
2022/01/16 03:24:27;;;;;;;;;;;8.50;59.60;;;;;;5019894;28;19956;-91
2022/01/16 03:26:56;;;;;;;;;;;8.50;59.60;;;;;;5018618;28;19913;-88
2022/01/16 03:29:23;;;;;;;;;;;8.50;59.60;;;;;;5036699;28;20341;-88
2022/01/16 03:31:48;;;;;;;;;;;8.50;59.60;;;;;;5037013;28;20344;-88
2022/01/16 03:34:14;;;;;;;;;;;8.50;59.90;;;;;;5018952;28;19913;-88
2022/01/16 03:36:43;;;;;;;;;;;8.50;59.90;;;;;;5018650;28;19917;-88
2022/01/16 03:39:08;;;;;;;;;;;8.60;59.90;;;;;;5018871;28;19909;-88
2022/01/16 03:41:35;;;;;;;;;;;8.60;59.90;;;;;;5018567;28;19917;-88
2022/01/16 03:44:03;;;;;;;;;;;8.60;59.80;;;;;;5018677;28;20009;-88
2022/01/16 03:46:34;;;;;;;;;;;8.60;59.90;;;;;;5018646;28;19963;-88
2022/01/16 03:49:19;;;;;;;;;;;8.60;60.00;;;;;;5036461;28;19917;-88
2022/01/16 03:51:45;;;;;;;;;;;8.60;60.00;;;;;;5037192;28;20042;-88
2022/01/16 03:54:12;;;;;;;;;;;8.60;60.10;;;;;;5036549;28;19909;-88
2022/01/16 03:56:37;;;;;;;;;;;8.60;60.30;;;;;;5036711;28;19928;-88
2022/01/16 03:59:03;;;;;;;;;;;8.60;60.00;;;;;;5035875;28;19909;-88
2022/01/16 04:01:29;;;;;;;;;;;8.60;60.00;;;;;;5018802;28;19921;-88
2022/01/16 04:03:55;;;;;;;;;;;8.60;60.00;;;;;;5015057;28;19914;-88
2022/01/16 04:06:21;;;;;;;;;;;8.60;60.10;;;;;;5015250;28;19918;-88
2022/01/16 04:08:47;;;;;;;;;;;8.50;60.00;;;;;;5015325;28;20009;-88
2022/01/16 04:11:12;;;;;;;;;;;8.50;60.20;;;;;;5018213;28;19918;-88
2022/01/16 04:13:47;;;;;;;;;;;8.50;60.30;;;;;;5006352;28;20371;-88
2022/01/16 04:16:12;;;;;;;;;;;8.50;60.30;;;;;;5000606;28;19980;-88
2022/01/16 04:18:38;;;;;;;;;;;8.50;60.30;;;;;;4999595;28;19957;-88
2022/01/16 04:21:04;;;;;;;;;;;8.50;60.40;;;;;;4998563;28;20361;-88
2022/01/16 04:23:30;;;;;;;;;;;8.50;60.50;;;;;;4998812;28;19917;-88
2022/01/16 04:25:55;;;;;;;;;;;8.60;60.70;;;;;;5011072;28;20020;-88
2022/01/16 04:28:24;;;;;;;;;;;8.70;60.80;;;;;;5033730;28;20376;-88
2022/01/16 04:30:50;;;;;;;;;;;8.70;60.70;;;;;;5017731;28;19920;-87
2022/01/16 04:33:16;;;;;;;;;;;8.70;60.80;;;;;;5036143;28;20020;-87
2022/01/16 04:35:41;;;;;;;;;;;8.70;60.90;;;;;;5017557;28;20008;-88
2022/01/16 04:38:07;;;;;;;;;;;8.70;61.00;;;;;;5017652;28;19973;-87
2022/01/16 04:40:41;;;;;;;;;;;8.80;61.00;;;;;;5035520;28;19909;-88
2022/01/16 04:45:51;;;;;;;;;;;8.80;61.00;;;;;;5035819;28;19916;-88
2022/01/16 04:48:16;;;;;;;;;;;8.80;61.10;;;;;;5035606;28;20265;-88
2022/01/16 04:50:42;;;;;;;;;;;8.80;61.00;;;;;;5035118;28;19932;-88
2022/01/16 04:53:08;;;;;;;;;;;8.90;61.10;;;;;;5035521;28;20245;-88
2022/01/16 04:55:34;;;;;;;;;;;8.90;61.00;;;;;;4997903;28;20277;-87
2022/01/16 04:57:59;;;;;;;;;;;9.00;61.10;;;;;;4997770;28;19918;-88
2022/01/16 05:00:24;;;;;;;;;;;9.00;61.00;;;;;;5007513;28;19936;-87
2022/01/16 05:02:51;;;;;;;;;;;9.00;61.00;;;;;;5017328;28;20395;-87
2022/01/16 05:05:16;;;;;;;;;;;9.00;60.90;;;;;;5034938;28;19909;-87
2022/01/16 05:07:41;;;;;;;;;;;9.00;61.00;;;;;;5017128;28;19917;-88
2022/01/16 05:10:07;;;;;;;;;;;9.10;60.90;;;;;;5006939;28;19926;-87
2022/01/16 05:12:36;;;;;;;;;;;9.10;60.70;;;;;;5032594;28;20012;-87
2022/01/16 05:17:46;;;;;;;;;;;9.00;60.50;;;;;;5034674;28;20035;-87
2022/01/16 05:20:12;;;;;;;;;;;9.00;60.50;;;;;;5017385;28;19917;-87
2022/01/16 05:22:37;;;;;;;;;;;9.00;60.50;;;;;;5018594;28;19924;-87
2022/01/16 05:25:04;;;;;;;;;;;9.00;60.60;;;;;;5014624;28;20495;-87
2022/01/16 05:27:30;;;;;;;;;;;9.00;60.50;;;;;;4997179;28;19923;-87
2022/01/16 05:29:55;;;;;;;;;;;9.00;60.60;;;;;;5014880;28;19910;-87
2022/01/16 05:32:20;;;;;;;;;;;9.10;60.40;;;;;;5015076;28;19971;-87
2022/01/16 05:34:46;;;;;;;;;;;9.10;60.40;;;;;;5014851;28;19913;-86
2022/01/16 05:37:11;;;;;;;;;;;9.10;60.40;;;;;;4996638;28;20366;-87
2022/01/16 05:39:38;;;;;;;;;;;9.10;60.30;;;;;;5014464;28;19910;-86
2022/01/16 05:42:04;;;;;;;;;;;9.20;60.40;;;;;;4996715;28;19924;-87
2022/01/16 05:44:30;;;;;;;;;;;9.20;60.40;;;;;;4996484;28;19913;-87
2022/01/16 05:46:55;;;;;;;;;;;9.20;60.40;;;;;;5012913;28;19917;-86
2022/01/16 05:49:21;;;;;;;;;;;9.20;60.20;;;;;;5009081;28;20280;-87
2022/01/16 05:51:46;;;;;;;;;;;9.20;60.30;;;;;;4996710;28;20040;-87
2022/01/16 05:54:12;;;;;;;;;;;9.20;60.20;;;;;;5015992;28;19914;-87
2022/01/16 05:56:37;;;;;;;;;;;9.20;60.30;;;;;;5015781;28;19921;-86
2022/01/16 05:59:03;;;;;;;;;;;9.20;60.20;;;;;;5032468;28;20004;-87
2022/01/16 06:01:28;;;;;;;;;;;9.20;60.30;;;;;;5002337;28;20251;-87
2022/01/16 06:03:54;;;;;;;;;;;9.20;60.30;;;;;;5027415;28;19924;-87
2022/01/16 06:06:19;;;;;;;;;;;9.20;60.20;;;;;;5011567;28;19913;-87
2022/01/16 06:08:45;;;;;;;;;;;9.20;60.30;;;;;;5014584;28;19921;-87
2022/01/16 06:11:11;;;;;;;;;;;9.20;60.20;;;;;;5014935;28;19956;-87
2022/01/16 06:13:36;;;;;;;;;;;9.20;60.30;;;;;;5000331;28;19917;-87
2022/01/16 06:16:03;;;;;;;;;;;9.20;60.30;;;;;;5005810;28;19914;-87
2022/01/16 06:18:29;;;;;;;;;;;9.20;60.30;;;;;;5009909;28;19917;-87
2022/01/16 06:20:55;;;;;;;;;;;9.20;60.30;;;;;;4999376;28;19923;-87
2022/01/16 06:23:20;;;;;;;;;;;9.30;60.20;;;;;;5015631;28;19917;-87
2022/01/16 06:25:46;;;;;;;;;;;9.30;60.20;;;;;;5011245;28;19909;-87
2022/01/16 06:28:11;;;;;;;;;;;9.20;60.20;;;;;;5022891;28;19921;-87
2022/01/16 06:30:37;;;;;;;;;;;9.30;60.20;;;;;;5013870;28;19910;-87
2022/01/16 06:33:05;;;;;;;;;;;9.30;60.20;;;;;;5014049;28;19940;-87
2022/01/16 06:35:30;;;;;;;;;;;9.20;60.30;;;;;;5011003;28;20036;-87
2022/01/16 06:37:56;;;;;;;;;;;9.30;60.30;;;;;;5015187;28;19956;-87
2022/01/16 06:40:21;;;;;;;;;;;9.30;60.50;;;;;;5015409;28;19917;-87
2022/01/16 06:42:47;;;;;;;;;;;9.30;60.40;;;;;;4997361;28;20354;-87
2022/01/16 06:45:12;;;;;;;;;;;9.30;60.50;;;;;;5021326;28;20353;-87
2022/01/16 06:47:38;;;;;;;;;;;9.30;60.50;;;;;;5014651;28;19955;-87
2022/01/16 06:50:05;;;;;;;;;;;9.40;60.30;;;;;;5020087;28;20390;-87
2022/01/16 06:52:30;;;;;;;;;;;9.30;60.40;;;;;;5033446;28;19956;-87
2022/01/16 06:54:56;;;;;;;;;;;9.40;60.40;;;;;;5001004;28;20066;-87
2022/01/16 06:57:21;;;;;;;;;;;9.40;60.40;;;;;;5032687;28;19971;-87
2022/01/16 06:59:47;;;;;;;;;;;9.40;60.30;;;;;;5031132;28;20337;-87
2022/01/16 07:02:16;;;;;;;;;;;9.40;60.20;;;;;;5000758;28;20294;-86
2022/01/16 07:04:43;;;;;;;;;;;9.40;60.10;;;;;;4995982;28;19913;-87
2022/01/16 07:07:09;;;;;;;;;;;9.50;60.20;;;;;;5018164;28;19924;-87
2022/01/16 07:09:35;;;;;;;;;;;9.50;60.20;;;;;;4998911;28;20020;-86
2022/01/16 07:12:02;;;;;;;;;;;9.50;60.10;;;;;;5002653;28;19914;-85
2022/01/16 07:14:28;;;;;;;;;;;9.40;60.00;;;;;;5019503;28;19968;-87
2022/01/16 07:16:53;;;;;;;;;;;9.40;60.20;;;;;;5022726;28;19914;-87
2022/01/16 07:19:19;;;;;;;;;;;9.50;60.20;;;;;;5014379;28;19984;-88
2022/01/16 07:21:44;;;;;;;;;;;9.50;60.30;;;;;;4998691;28;20008;-87
2022/01/16 07:24:15;;;;;;;;;;;9.50;60.30;;;;;;5002960;28;20020;-88
2022/01/16 07:26:42;;;;;;;;;;;9.50;60.30;;;;;;5020751;28;19909;-88
2022/01/16 07:29:07;;;;;;;;;;;9.60;60.30;;;;;;5013673;28;19936;-88
2022/01/16 07:31:33;;;;;;;;;;;9.60;60.20;;;;;;5006890;28;19917;-88
2022/01/16 07:33:59;;;;;;;;;;;9.60;60.20;;;;;;4997636;28;19921;-88
2022/01/16 07:36:24;;;;;;;;;;;9.60;60.20;;;;;;5012704;28;19917;-88
2022/01/16 07:38:50;;;;;;;;;;;9.60;60.10;;;;;;5026943;28;19921;-89
2022/01/16 07:41:15;;;;;;;;;;;9.60;60.00;;;;;;5010154;28;19924;-88
2022/01/16 07:43:41;;;;;;;;;;;9.50;60.10;;;;;;5012936;28;19917;-88
2022/01/16 07:46:06;;;;;;;;;;;9.50;60.10;;;;;;4996893;28;19920;-88
2022/01/16 07:48:31;;;;;;;;;;;9.50;60.20;;;;;;4995347;28;20340;-88
2022/01/16 07:50:57;;;;;;;;;;;9.50;60.30;;;;;;5018062;28;20008;-88
2022/01/16 07:53:22;;;;;;;;;;;9.50;60.20;;;;;;5032842;28;19949;-88
2022/01/16 07:55:48;;;;;;;;;;;9.50;60.30;;;;;;5015014;28;19944;-88
2022/01/16 07:58:13;;;;;;;;;;;9.50;60.40;;;;;;5030935;28;20379;-88
2022/01/16 08:00:39;;;;;;;;;;;9.50;60.20;;;;;;4998335;28;20409;-88
2022/01/16 08:03:04;;;;;;;;;;;9.50;60.20;;;;;;5022861;28;20183;-88
2022/01/16 08:05:30;;;;;;;;;;;9.50;60.40;;;;;;5010585;28;19918;-88
2022/01/16 08:07:56;;;;;;;;;;;9.50;60.30;;;;;;5018110;28;19909;-88
2022/01/16 08:10:21;;;;;;;;;;;9.50;60.30;;;;;;5036587;28;19918;-88
2022/01/16 08:12:47;;;;;;;;;;;9.50;60.50;;;;;;5036099;28;19956;-88
2022/01/16 08:15:15;;;;;;;;;;;9.50;60.40;;;;;;5018291;28;19921;-88
2022/01/16 08:17:41;;;;;;;;;;;9.60;60.40;;;;;;5017789;28;19916;-88
2022/01/16 08:20:08;;;;;;;;;;;9.60;60.30;;;;;;5018127;28;20345;-88
2022/01/16 08:22:34;;;;;;;;;;;9.70;60.40;;;;;;5016559;28;19953;-88
2022/01/16 08:25:00;;;;;;;;;;;9.70;60.60;;;;;;5002974;28;19941;-88
2022/01/16 08:27:25;;;;;;;;;;;9.70;60.40;;;;;;5016015;28;20459;-88
2022/01/16 08:29:51;;;;;;;;;;;9.80;60.40;;;;;;4998524;28;19956;-88
2022/01/16 08:32:16;;;;;;;;;;;9.80;60.40;;;;;;4998541;28;19932;-88
2022/01/16 08:34:42;;;;;;;;;;;9.80;60.40;;;;;;5016143;28;19925;-88
2022/01/16 08:37:07;;;;;;;;;;;9.90;60.50;;;;;;4998120;28;19917;-88
2022/01/16 08:39:33;;;;;;;;;;;9.90;60.30;;;;;;5015935;28;19917;-88
2022/01/16 08:41:59;;;;;;;;;;;9.90;60.20;;;;;;5001068;28;19924;-88
2022/01/16 08:44:24;;;;;;;;;;;9.90;60.30;;;;;;5024204;28;19917;-88
2022/01/16 08:46:51;;;;;;;;;;;9.90;60.30;;;;;;5018254;28;19920;-88
2022/01/16 08:49:16;;;;;;;;;;;9.90;60.30;;;;;;5012586;28;19928;-88
2022/01/16 08:51:42;;;;;;;;;;;9.90;60.10;;;;;;5024413;28;19910;-88
2022/01/16 08:54:07;;;;;;;;;;;9.90;60.20;;;;;;5010461;28;19944;-88
2022/01/16 08:56:32;;;;;;;;;;;9.90;60.10;;;;;;4998688;28;19913;-88
2022/01/16 08:58:58;;;;;;;;;;;9.80;60.10;;;;;;5007387;28;19921;-88
2022/01/16 09:01:23;;;;;;;;;;;9.80;60.40;;;;;;5023629;28;19916;-88
2022/01/16 09:03:49;;;;;;;;;;;9.80;60.50;;;;;;5035012;28;20274;-88
2022/01/16 09:06:16;;;;;;;;;;;9.80;60.70;;;;;;5034909;28;19956;-88
2022/01/16 09:08:41;;;;;;;;;;;9.90;60.80;;;;;;5022827;28;19909;-89
2022/01/16 09:11:07;;;;;;;;;;;9.90;61.00;;;;;;5030074;28;20336;-88
2022/01/16 09:13:33;;;;;;;;;;;9.90;61.00;;;;;;5029998;28;19932;-89
2022/01/16 09:15:58;;;;;;;;;;;9.90;60.80;;;;;;5017710;28;19913;-88
2022/01/16 09:18:24;;;;;;;;;;;9.90;60.80;;;;;;5016439;28;19955;-87
2022/01/16 09:20:49;;;;;;;;;;;9.90;60.90;;;;;;5037204;28;19921;-93
2022/01/16 09:23:15;;;;;;;;;;;9.90;60.90;;;;;;5020880;28;19920;-91
2022/01/16 09:25:41;;;;;;;;;;;9.90;61.10;;;;;;5021432;28;19917;-91
2022/01/16 09:28:07;;;;;;;;;;;9.90;61.10;;;;;;5020014;28;19975;-92
2022/01/16 09:30:32;;;;;;;;;;;9.90;61.10;;;;;;5015022;28;19917;-92
2022/01/16 09:32:58;;;;;;;;;;;9.90;61.20;;;;;;5002780;28;19910;-92
2022/01/16 09:35:24;;;;;;;;;;;9.90;61.20;;;;;;5008299;28;20004;-93
2022/01/16 09:37:50;;;;;;;;;;;9.90;61.30;;;;;;5034072;28;19921;-92
2022/01/16 09:40:18;;;;;;;;;;;9.90;61.40;;;;;;5037899;28;19917;-91
2022/01/16 09:42:43;;;;;;;;;;;9.90;61.30;;;;;;5005783;28;20008;-88
2022/01/16 09:45:11;;;;;;;;;;;9.90;61.30;;;;;;4997289;28;19968;-88
2022/01/16 09:47:37;;;;;;;;;;;9.90;61.30;;;;;;5014199;28;19910;-88
2022/01/16 09:50:05;;;;;;;;;;;10.00;61.30;;;;;;4996467;28;19917;-88
2022/01/16 09:52:41;;;;;;;;;;;10.00;61.30;;;;;;4996726;28;19916;-88
2022/01/16 09:55:10;;;;;;;;;;;10.00;61.30;;;;;;4997164;28;19921;-88
2022/01/16 09:57:35;;;;;;;;;;;10.00;61.40;;;;;;5014252;28;19921;-88
2022/01/16 10:00:03;;;;;;;;;;;10.00;61.40;;;;;;5007409;28;19921;-88
2022/01/16 10:02:28;;;;;;;;;;;10.00;61.40;;;;;;5034198;28;19909;-87
2022/01/16 10:04:53;;;;;;;;;;;10.00;61.60;;;;;;5015101;28;19921;-88
2022/01/16 10:07:20;;;;;;;;;;;10.00;61.70;;;;;;5014931;28;19920;-88
2022/01/16 10:10:04;;;;;;;;;;;10.00;61.80;;;;;;5011242;28;20044;-87
2022/01/16 10:12:30;;;;;;;;;;;10.10;61.70;;;;;;4996958;28;19918;-87
2022/01/16 10:14:56;;;;;;;;;;;10.10;61.70;;;;;;5012155;28;20384;-88
2022/01/16 10:17:23;;;;;;;;;;;10.20;61.60;;;;;;5027978;28;19913;-87
2022/01/16 10:20:03;;;;;;;;;;;10.20;61.70;;;;;;4996869;28;20354;-87
2022/01/16 10:22:48;;;;;;;;;;;10.20;61.70;;;;;;4998756;28;20285;-88
2022/01/16 10:25:15;;;;;;;;;;;10.20;61.90;;;;;;4997139;28;19924;-88
2022/01/16 10:27:42;;;;;;;;;;;10.20;61.90;;;;;;5016110;28;19996;-88
2022/01/16 10:30:09;;;;;;;;;;;10.30;61.90;;;;;;5015406;28;20333;-88
2022/01/16 10:32:42;;;;;;;;;;;10.30;61.90;;;;;;5014696;28;19916;-89
2022/01/16 10:35:11;;;;;;;;;;;10.30;62.00;;;;;;4998099;28;19922;-88
2022/01/16 10:37:37;;;;;;;;;;;10.40;62.10;;;;;;4996473;28;19918;-86
2022/01/16 10:40:14;;;;;;;;;;;10.40;62.10;;;;;;5015293;28;19928;-86
2022/01/16 10:42:40;;;;;;;;;;;10.50;62.10;;;;;;5016813;28;19917;-86
2022/01/16 10:45:06;;;;;;;;;;;10.50;62.00;;;;;;5033853;28;19923;-87
2022/01/16 10:47:33;;;;;;;;;;;10.40;62.10;;;;;;5017257;28;19987;-87
2022/01/16 10:50:03;;;;;;;;;;;10.50;62.10;;;;;;5016228;28;19917;-87
2022/01/16 10:52:54;;;;;;;;;;;10.50;62.00;;;;;;5017195;28;19932;-93
2022/01/16 10:55:21;;;;;;;;;;;10.60;62.00;;;;;;5013259;28;19921;-96
2022/01/16 10:57:47;;;;;;;;;;;10.60;62.30;;;;;;5002881;28;19916;-95
2022/01/16 11:00:15;;;;;;;;;;;10.70;62.30;;;;;;5001818;28;19970;-95
2022/01/16 11:02:42;;;;;;;;;;;10.70;62.10;;;;;;5009568;28;20368;-93
2022/01/16 11:05:09;;;;;;;;;;;10.70;62.30;;;;;;5021236;28;19917;-93
2022/01/16 11:07:35;;;;;;;;;;;10.80;62.20;;;;;;5019571;28;20373;-92
2022/01/16 11:10:17;;;;;;;;;;;10.80;62.10;;;;;;5021906;28;19966;-94
2022/01/16 11:12:43;;;;;;;;;;;10.90;62.00;;;;;;5020972;28;19917;-93
2022/01/16 11:15:08;;;;;;;;;;;11.00;62.20;;;;;;5020984;28;20284;-94
2022/01/16 11:17:36;;;;;;;;;;;11.00;62.10;;;;;;5021079;28;19921;-92
2022/01/16 11:20:03;;;;;;;;;;;11.20;62.00;;;;;;5020840;28;19980;-95
2022/01/16 11:22:34;;;;;;;;;;;11.10;62.00;;;;;;5022029;28;19917;-94
2022/01/16 11:25:11;;;;;;;;;;;11.30;62.00;;;;;;5042112;28;19968;-94
2022/01/16 11:27:39;;;;;;;;;;;11.30;62.10;;;;;;5019918;28;19917;-94
2022/01/16 11:30:07;;;;;;;;;;;11.40;61.90;;;;;;5018290;28;19909;-94
2022/01/16 11:32:33;;;;;;;;;;;11.40;61.70;;;;;;5023280;28;19917;-94
2022/01/16 11:34:58;;;;;;;;;;;11.40;61.60;;;;;;5021228;28;19913;-94
2022/01/16 11:37:24;;;;;;;;;;;11.40;61.50;;;;;;5021126;28;19921;-91
2022/01/16 11:39:50;;;;;;;;;;;11.50;61.50;;;;;;5021393;28;19963;-93
2022/01/16 11:42:22;;;;;;;;;;;11.50;61.40;;;;;;5023179;28;20272;-93
2022/01/16 11:45:12;;;;;;;;;;;11.60;61.50;;;;;;5023671;28;20361;-93
2022/01/16 11:47:56;;;;;;;;;;;11.70;61.50;;;;;;5023360;28;19909;-93
2022/01/16 11:50:32;;;;;;;;;;;11.80;61.30;;;;;;5009270;28;19939;-94
2022/01/16 11:52:58;;;;;;;;;;;11.80;61.40;;;;;;5024679;28;19909;-94
2022/01/16 11:55:54;;;;;;;;;;;11.90;61.10;;;;;;5025051;28;19944;-93
2022/01/16 11:58:25;;;;;;;;;;;11.90;61.20;;;;;;5041764;28;20498;-94
2022/01/16 12:00:51;;;;;;;;;;;12.00;61.00;;;;;;5026319;28;19917;-95
2022/01/16 12:03:35;;;;;;;;;;;12.10;60.90;;;;;;5025769;28;19909;-95
2022/01/16 12:06:37;;;;;;;;;;;12.10;60.90;;;;;;5013309;28;19924;-93
2022/01/16 12:09:04;;;;;;;;;;;12.20;60.80;;;;;;4933504;29;20332;-94
2022/01/16 12:11:37;;;;;;;;;;;12.20;60.90;;;;;;5009489;28;19917;-93
2022/01/16 12:14:03;;;;;;;;;;;12.30;60.70;;;;;;5014488;28;19936;-95
2022/01/16 12:16:40;;;;;;;;;;;12.40;60.70;;;;;;5033568;28;19905;-96
2022/01/16 12:19:24;;;;;;;;;;;12.40;60.60;;;;;;5027262;28;20007;-94
2022/01/16 12:21:55;;;;;;;;;;;12.40;60.50;;;;;;5027375;28;19921;-94
2022/01/16 12:24:35;;;;;;;;;;;12.40;60.40;;;;;;5005822;28;19916;-93
2022/01/16 12:27:19;;;;;;;;;;;12.40;60.30;;;;;;4991786;28;19918;-93
2022/01/16 12:30:03;;;;;;;;;;;12.50;60.20;;;;;;5006871;28;19940;-92
2022/01/16 12:32:47;;;;;;;;;;;12.40;60.20;;;;;;5008314;28;19921;-94
2022/01/16 12:35:14;;;;;;;;;;;12.50;60.10;;;;;;5016697;28;19981;-94
2022/01/16 12:37:40;;;;;;;;;;;12.40;59.90;;;;;;5041872;28;19921;-93
2022/01/16 12:40:09;;;;;;;;;;;12.40;59.80;;;;;;5026994;28;19913;-95
2022/01/16 12:42:35;;;;;;;;;;;12.50;59.90;;;;;;5029680;28;20155;-95
2022/01/16 12:45:00;;;;;;;;;;;12.50;60.00;;;;;;5043110;28;19913;-96
2022/01/16 12:47:26;;;;;;;;;;;12.50;60.00;;;;;;5026752;28;19913;-91
2022/01/16 12:49:52;;;;;;;;;;;12.60;60.00;;;;;;5039445;28;20007;-94
2022/01/16 12:52:18;;;;;;;;;;;12.70;59.90;;;;;;5026020;28;19913;-93
2022/01/16 12:54:50;;;;;;;;;;;12.70;59.70;;;;;;5041181;28;19909;-96
2022/01/16 12:57:25;;;;;;;;;;;12.70;59.70;;;;;;5042774;28;19921;-94
2022/01/16 12:59:51;;;;;;;;;;;12.70;59.70;;;;;;5039244;28;19920;-94
2022/01/16 13:02:17;;;;;;;;;;;12.70;59.60;;;;;;5033488;28;19918;-94
2022/01/16 13:04:43;;;;;;;;;;;12.80;59.80;;;;;;5041195;28;19916;-96
2022/01/16 13:07:10;;;;;;;;;;;12.80;59.70;;;;;;5023706;28;20357;-93
2022/01/16 13:09:36;;;;;;;;;;;12.80;59.80;;;;;;5035642;28;20000;-94
2022/01/16 13:12:02;;;;;;;;;;;12.80;59.50;;;;;;5039411;28;19955;-89
2022/01/16 13:14:33;;;;;;;;;;;12.80;59.40;;;;;;5018118;28;19959;-89
2022/01/16 13:16:59;;;;;;;;;;;12.80;59.60;;;;;;5035657;28;19924;-89
2022/01/16 13:19:26;;;;;;;;;;;12.70;59.40;;;;;;5034241;28;19909;-89
2022/01/16 13:22:13;;;;;;;;;;;12.70;59.10;;;;;;5024855;28;19968;-88
2022/01/16 13:24:39;;;;;;;;;;;12.70;59.60;;;;;;5035635;28;19913;-89
2022/01/16 13:27:15;;;;;;;;;;;12.70;59.90;;;;;;5035655;28;19917;-90
2022/01/16 13:29:45;;;;;;;;;;;12.70;59.50;;;;;;5026590;28;19909;-89
2022/01/16 13:32:12;;;;;;;;;;;12.70;59.60;;;;;;5024798;28;19918;-88
2022/01/16 13:34:44;;;;;;;;;;;12.70;59.50;;;;;;5035884;28;19909;-89
2022/01/16 13:37:20;;;;;;;;;;;12.60;59.50;;;;;;5027440;28;20039;-88
2022/01/16 13:39:50;;;;;;;;;;;12.70;59.20;;;;;;5030068;28;20299;-88
2022/01/16 13:42:30;;;;;;;;;;;12.60;59.20;;;;;;5022914;28;20342;-88
2022/01/16 13:45:15;;;;;;;;;;;12.60;59.60;;;;;;5047426;28;19952;-88
2022/01/16 13:47:48;;;;;;;;;;;12.60;59.80;;;;;;5027427;28;20000;-88
2022/01/16 13:50:14;;;;;;;;;;;12.60;59.70;;;;;;5035689;28;19909;-87
2022/01/16 13:52:49;;;;;;;;;;;12.50;59.70;;;;;;5035274;28;19924;-87
2022/01/16 13:55:14;;;;;;;;;;;12.60;59.90;;;;;;5017674;28;19917;-87
2022/01/16 13:57:40;;;;;;;;;;;12.50;59.50;;;;;;5028479;28;19917;-86
2022/01/16 14:00:07;;;;;;;;;;;12.50;59.50;;;;;;5034992;28;20360;-89
2022/01/16 14:02:37;;;;;;;;;;;12.50;59.80;;;;;;5024554;28;19917;-89
2022/01/16 14:05:02;;;;;;;;;;;12.50;59.60;;;;;;5028788;28;19909;-89
2022/01/16 14:07:28;;;;;;;;;;;12.50;59.60;;;;;;5021141;28;20395;-88
2022/01/16 14:09:55;;;;;;;;;;;12.50;59.50;;;;;;5043789;28;19913;-90
2022/01/16 14:12:21;;;;;;;;;;;12.50;59.40;;;;;;5033706;28;19960;-89
2022/01/16 14:14:48;;;;;;;;;;;12.40;59.60;;;;;;5033334;28;19913;-89
2022/01/16 14:17:39;;;;;;;;;;;12.40;59.50;;;;;;5033080;28;19920;-89
2022/01/16 14:20:23;;;;;;;;;;;12.40;59.50;;;;;;5035069;28;19913;-88
2022/01/16 14:22:48;;;;;;;;;;;12.40;59.60;;;;;;5034847;28;19917;-88
2022/01/16 14:25:42;;;;;;;;;;;12.40;59.50;;;;;;5034384;28;19948;-88
2022/01/16 14:28:08;;;;;;;;;;;12.40;59.50;;;;;;5017068;28;19988;-89
2022/01/16 14:30:33;;;;;;;;;;;12.30;59.50;;;;;;5017015;28;19949;-89
2022/01/16 14:32:59;;;;;;;;;;;12.30;59.80;;;;;;5016705;28;19916;-89
2022/01/16 14:35:24;;;;;;;;;;;12.30;59.60;;;;;;5022850;28;20384;-89
2022/01/16 14:37:50;;;;;;;;;;;12.40;59.70;;;;;;5034467;28;19913;-89
2022/01/16 14:40:15;;;;;;;;;;;12.30;59.70;;;;;;5033632;28;19925;-89
2022/01/16 14:42:42;;;;;;;;;;;12.30;59.50;;;;;;5017481;28;19909;-90
2022/01/16 14:45:09;;;;;;;;;;;12.30;59.30;;;;;;5033389;28;20258;-89
2022/01/16 14:47:35;;;;;;;;;;;12.30;59.20;;;;;;5023341;28;19909;-89
2022/01/16 14:50:00;;;;;;;;;;;12.30;59.40;;;;;;5029828;28;19917;-88
2022/01/16 14:52:26;;;;;;;;;;;12.30;59.60;;;;;;5034118;28;20253;-90
2022/01/16 14:54:52;;;;;;;;;;;12.30;59.40;;;;;;5025225;28;19917;-89
2022/01/16 14:57:22;;;;;;;;;;;12.30;59.50;;;;;;5019378;28;20298;-89
2022/01/16 14:59:47;;;;;;;;;;;12.30;59.50;;;;;;5016686;28;19947;-89
2022/01/16 15:02:13;;;;;;;;;;;12.30;59.60;;;;;;5032874;28;20383;-89
2022/01/16 15:04:38;;;;;;;;;;;12.30;59.70;;;;;;5016710;28;19964;-89
2022/01/16 15:07:06;;;;;;;;;;;12.30;59.60;;;;;;5017557;28;20012;-89